Terminal Aerodrome Forecast
Issued by NWS

Home | Current Version | Previous Version | Text Only | Print | Product List | Glossary On
Versions: 1 2 3 4 5 6 7 8 9 10 11 12 13
000
FTUS42 KTAE 261726
TAFECP
TAF
KECP 261726Z 2618/2718 16014G20KT P6SM SCT040
     FM270000 14008KT P6SM BKN080
     FM271400 17017G25KT P6SM VCTS BKN025CB BKN050=

USA.gov is the U.S. government's official web portal to all federal, state and local government web resources and services.